Time;durP1;ratioP1;P1;durP2;ratioP2;P2;SDS_P1;SDS_P2;PMS_P1;PMS_P2;Temp;Humidity;BMP_temperature;BMP_pressure;BME280_temperature;BME280_humidity;BME280_pressure;Samples;Min_cycle;Max_cycle;Signal;HPM_P1;HPM_P2
2021/11/01 00:01:30;;;;;;;;;7.75;3.75;;;;;11.71;65.28;99735.91;4960076;28;45438;-64
2021/11/01 00:04:02;;;;;;;;;4.75;2.75;;;;;11.73;65.50;99741.13;4960266;28;45882;-64
2021/11/01 00:06:27;;;;;;;;;4.25;2.75;;;;;11.74;65.45;99736.72;4988698;28;45353;-64
2021/11/01 00:08:53;;;;;;;;;3.50;2.00;;;;;11.73;65.72;99727.13;4969960;28;45312;-64
2021/11/01 00:11:18;;;;;;;;;2.25;2.25;;;;;11.71;65.70;99738.56;4960335;28;45249;-64
2021/11/01 00:13:43;;;;;;;;;3.50;3.25;;;;;11.69;65.58;99724.56;4958602;28;46398;-64
2021/11/01 00:16:09;;;;;;;;;6.75;2.00;;;;;11.72;65.55;99726.25;4960208;28;45343;-64
2021/11/01 00:18:34;;;;;;;;;32.25;29.50;;;;;11.66;65.70;99719.44;4960234;28;45359;-63
2021/11/01 00:21:00;;;;;;;;;2.25;2.25;;;;;11.61;65.62;99709.97;4971129;28;45363;-65
2021/11/01 00:23:25;;;;;;;;;5.50;2.25;;;;;11.68;65.56;99724.63;4958872;28;46917;-64
2021/11/01 00:25:51;;;;;;;;;4.75;2.50;;;;;11.67;65.75;99715.00;5012397;28;45324;-64
2021/11/01 00:28:16;;;;;;;;;3.00;3.00;;;;;11.62;65.72;99707.31;4958642;27;45411;-63
2021/11/01 00:30:42;;;;;;;;;3.50;3.50;;;;;11.62;65.63;99707.31;4959839;28;45513;-64
2021/11/01 00:33:08;;;;;;;;;4.00;1.50;;;;;11.62;65.36;99709.94;4959989;28;47059;-64
2021/11/01 00:35:33;;;;;;;;;6.50;2.25;;;;;11.61;65.71;99709.97;4958522;28;45376;-64
2021/11/01 00:37:59;;;;;;;;;4.75;3.25;;;;;11.59;65.58;99696.03;4964474;28;45282;-64
2021/11/01 00:40:24;;;;;;;;;3.25;1.25;;;;;11.58;65.74;99700.41;4960020;28;45154;-65
2021/11/01 00:42:50;;;;;;;;;4.50;2.75;;;;;11.57;65.54;99697.84;4959536;28;46026;-64
2021/11/01 00:45:15;;;;;;;;;3.25;3.25;;;;;11.55;65.58;99696.09;4959789;28;45410;-64
2021/11/01 00:47:40;;;;;;;;;1.50;1.50;;;;;11.49;65.78;99693.69;4960090;28;45808;-65
2021/11/01 00:50:08;;;;;;;;;5.00;2.75;;;;;11.49;65.67;99695.47;4959743;28;45244;-65
2021/11/01 00:52:34;;;;;;;;;2.75;2.75;;;;;11.47;65.69;99692.03;4959766;28;46189;-64
2021/11/01 00:55:03;;;;;;;;;6.00;4.00;;;;;11.46;65.76;99685.03;4959719;28;45281;-65
2021/11/01 00:57:29;;;;;;;;;3.75;2.75;;;;;11.45;65.78;99683.34;4959642;28;45258;-64
2021/11/01 00:59:56;;;;;;;;;3.50;1.75;;;;;11.43;65.76;99675.47;4959084;28;45487;-64
2021/11/01 01:02:22;;;;;;;;;8.00;3.50;;;;;11.42;65.79;99670.28;4959514;28;45438;-64
2021/11/01 01:04:48;;;;;;;;;4.25;2.25;;;;;11.42;65.86;99670.28;4959404;28;45367;-64
2021/11/01 01:07:13;;;;;;;;;7.00;2.50;;;;;11.35;66.07;99673.13;4959764;28;45439;-64
2021/11/01 01:09:39;;;;;;;;;4.75;3.75;;;;;11.35;65.81;99662.59;4983604;28;45374;-64
2021/11/01 01:12:07;;;;;;;;;1.00;1.00;;;;;11.36;65.93;99666.97;4959426;28;46049;-64
2021/11/01 01:14:39;;;;;;;;;2.25;2.25;;;;;11.37;65.79;99670.44;4959209;28;45359;-65
2021/11/01 01:17:05;;;;;;;;;3.50;2.75;;;;;11.37;65.89;99662.53;4959600;28;45337;-64
2021/11/01 01:19:43;;;;;;;;;4.75;4.00;;;;;11.31;65.43;99668.88;4959356;28;45474;-64
2021/11/01 01:22:21;;;;;;;;;6.75;2.50;;;;;11.35;65.81;99665.22;4959325;28;46380;-64
2021/11/01 01:24:47;;;;;;;;;3.75;2.75;;;;;11.33;65.93;99666.19;4973649;28;45462;-65
2021/11/01 01:27:12;;;;;;;;;8.00;3.50;;;;;11.32;65.68;99661.84;4998983;27;45443;-64
2021/11/01 01:29:38;;;;;;;;;7.75;3.50;;;;;11.34;65.74;99657.41;4959146;28;45540;-64
2021/11/01 01:32:05;;;;;;;;;2.75;1.25;;;;;11.33;65.88;99659.19;4959314;28;45307;-64
2021/11/01 01:34:31;;;;;;;;;4.00;2.50;;;;;11.30;65.71;99659.28;4959358;28;45360;-63
2021/11/01 01:36:56;;;;;;;;;4.25;2.00;;;;;11.28;65.91;99650.59;4959284;28;45400;-64
2021/11/01 01:39:22;;;;;;;;;2.00;2.00;;;;;11.29;65.94;99647.03;4959466;28;45325;-64
2021/11/01 01:41:47;;;;;;;;;6.00;2.00;;;;;11.28;65.54;99647.09;4957901;28;46365;-64
2021/11/01 01:44:14;;;;;;;;;1.50;1.00;;;;;11.30;65.92;99654.00;4958977;28;45268;-64
2021/11/01 01:46:40;;;;;;;;;1.00;1.00;;;;;11.26;65.95;99656.78;4959295;28;45411;-63
2021/11/01 01:49:05;;;;;;;;;4.00;1.50;;;;;11.27;66.21;99656.75;4959135;28;45486;-64
2021/11/01 01:51:31;;;;;;;;;1.00;1.00;;;;;11.29;65.97;99659.34;4958928;28;46135;-64
2021/11/01 01:53:59;;;;;;;;;2.25;1.00;;;;;11.29;65.90;99654.91;4959301;28;45290;-64
2021/11/01 01:56:25;;;;;;;;;2.00;2.00;;;;;11.31;65.97;99639.13;4957843;28;45343;-64
2021/11/01 01:58:56;;;;;;;;;3.00;1.00;;;;;11.27;66.14;99638.34;4958645;28;45257;-63
2021/11/01 02:01:22;;;;;;;;;5.75;3.50;;;;;11.30;66.01;99632.13;4969402;28;46553;-64
2021/11/01 02:03:50;;;;;;;;;0.00;0.00;;;;;11.29;66.04;99636.50;4978485;28;45461;-64
2021/11/01 02:06:27;;;;;;;;;5.00;2.00;;;;;11.28;66.20;99633.94;4978632;28;45346;-64
2021/11/01 02:09:12;;;;;;;;;4.50;1.75;;;;;11.28;65.96;99634.81;4977765;28;45258;-64
2021/11/01 02:11:47;;;;;;;;;3.50;2.50;;;;;11.30;66.01;99630.34;4978248;28;46139;-64
2021/11/01 02:14:14;;;;;;;;;5.00;1.75;;;;;11.28;66.02;99629.56;4977999;28;45276;-63
2021/11/01 02:16:42;;;;;;;;;7.00;2.25;;;;;11.28;66.12;99633.94;4978474;28;45335;-64
2021/11/01 02:19:10;;;;;;;;;3.25;2.00;;;;;11.25;66.22;99627.03;4978319;28;45265;-63
2021/11/01 02:21:48;;;;;;;;;3.00;2.00;;;;;11.28;66.02;99637.44;4978067;28;46359;-63
2021/11/01 02:24:28;;;;;;;;;5.00;2.50;;;;;11.26;66.09;99630.50;4977994;28;45879;-64
2021/11/01 02:26:54;;;;;;;;;3.00;2.00;;;;;11.24;66.15;99612.16;5009151;28;45382;-64
2021/11/01 02:29:23;;;;;;;;;3.50;1.75;;;;;11.26;65.85;99625.22;4958102;28;45612;-64
2021/11/01 02:31:51;;;;;;;;;3.75;2.75;;;;;11.23;66.16;99615.69;4958656;28;47195;-64
2021/11/01 02:34:18;;;;;;;;;4.00;2.00;;;;;11.27;66.04;99612.06;4958352;28;45272;-63
2021/11/01 02:36:45;;;;;;;;;7.25;1.75;;;;;11.24;66.04;99620.03;4958632;28;45316;-64
2021/11/01 02:39:10;;;;;;;;;3.25;2.00;;;;;11.27;66.15;99629.59;4958425;28;45594;-63
2021/11/01 02:41:36;;;;;;;;;5.00;2.00;;;;;11.22;66.06;99625.34;4957132;28;47327;-64
2021/11/01 02:44:06;;;;;;;;;2.00;2.00;;;;;11.23;66.07;99620.94;4972609;28;45265;-64
2021/11/01 02:46:32;;;;;;;;;5.25;2.00;;;;;11.24;65.92;99633.19;4971288;28;45247;-64
2021/11/01 02:48:59;;;;;;;;;2.75;2.75;;;;;11.20;66.24;99631.59;4958592;28;45589;-63
2021/11/01 02:51:28;;;;;;;;;2.00;2.00;;;;;11.24;66.11;99627.09;4958215;28;47128;-64
2021/11/01 02:54:02;;;;;;;;;2.50;2.50;;;;;11.20;65.85;99634.22;4960264;28;45285;-64
2021/11/01 02:56:27;;;;;;;;;5.00;3.25;;;;;11.19;66.22;99637.75;4972308;28;45339;-64
2021/11/01 02:58:54;;;;;;;;;4.00;1.75;;;;;11.20;66.08;99648.22;4977300;28;45337;-64
2021/11/01 03:01:22;;;;;;;;;4.75;1.25;;;;;11.19;66.02;99646.50;4977473;28;47136;-63
2021/11/01 03:03:47;;;;;;;;;3.00;2.50;;;;;11.18;66.09;99625.50;4977740;28;45469;-63
2021/11/01 03:06:19;;;;;;;;;2.25;2.00;;;;;11.16;66.19;99627.34;4977690;28;45264;-63
2021/11/01 03:08:46;;;;;;;;;3.00;2.00;;;;;11.19;66.10;99638.63;4977747;28;45236;-63
2021/11/01 03:11:12;;;;;;;;;1.25;1.00;;;;;11.19;66.04;99635.13;4977098;28;46097;-63
2021/11/01 03:13:38;;;;;;;;;3.00;2.50;;;;;11.16;65.83;99629.97;4977200;28;45449;-63
2021/11/01 03:16:05;;;;;;;;;4.00;2.00;;;;;11.15;65.99;99628.25;4977578;28;45330;-63
2021/11/01 03:18:43;;;;;;;;;3.00;2.00;;;;;11.15;66.04;99629.09;4976185;28;45445;-63
2021/11/01 03:21:12;;;;;;;;;1.00;1.00;;;;;11.12;66.16;99636.22;4977630;28;45492;-64
2021/11/01 03:23:39;;;;;;;;;6.25;3.50;;;;;11.15;65.91;99634.34;4980307;28;45229;-64
2021/11/01 03:26:08;;;;;;;;;3.50;1.50;;;;;11.12;66.07;99646.75;5014325;28;45426;-63
2021/11/01 03:28:35;;;;;;;;;2.50;2.50;;;;;11.12;65.97;99633.59;4960523;28;45391;-64
2021/11/01 03:31:04;;;;;;;;;4.25;3.00;;;;;11.02;65.83;99636.56;4959269;28;47417;-63
2021/11/01 03:33:37;;;;;;;;;2.25;2.25;;;;;11.01;65.95;99624.31;4960668;28;45482;-63
2021/11/01 03:36:04;;;;;;;;;3.75;2.00;;;;;11.02;65.94;99640.97;4960705;28;45358;-63
2021/11/01 03:38:30;;;;;;;;;3.25;1.00;;;;;11.06;66.03;99651.31;4960596;28;45383;-64
2021/11/01 03:40:57;;;;;;;;;3.25;2.00;;;;;11.05;65.98;99646.94;4960535;28;46227;-63
2021/11/01 03:43:32;;;;;;;;;3.00;2.00;;;;;11.00;66.15;99654.13;4960208;28;45338;-64
2021/11/01 03:45:59;;;;;;;;;2.00;1.00;;;;;11.02;66.16;99646.22;4960688;28;45320;-64
2021/11/01 03:48:27;;;;;;;;;4.00;1.00;;;;;10.97;66.03;99653.38;4960346;28;45406;-63
2021/11/01 03:51:07;;;;;;;;;2.00;1.00;;;;;11.00;65.96;99662.03;4960345;28;46161;-64
2021/11/01 03:53:32;;;;;;;;;3.00;2.00;;;;;10.99;66.01;99662.09;4960361;28;45319;-64
2021/11/01 03:55:58;;;;;;;;;2.75;2.00;;;;;10.95;66.03;99674.47;4960698;28;45370;-64
2021/11/01 03:58:25;;;;;;;;;4.50;1.50;;;;;10.96;65.97;99672.72;4960130;28;45380;-64
2021/11/01 04:00:52;;;;;;;;;1.50;0.50;;;;;10.99;66.14;99680.47;4960265;28;46126;-64
2021/11/01 04:03:29;;;;;;;;;4.00;1.00;;;;;10.97;66.02;99671.78;4960290;28;45182;-63
2021/11/01 04:05:59;;;;;;;;;2.00;1.00;;;;;10.99;66.17;99669.97;4960482;28;45324;-64
2021/11/01 04:08:24;;;;;;;;;2.50;1.00;;;;;10.98;66.18;99666.50;4960167;28;45751;-63
2021/11/01 04:10:50;;;;;;;;;3.00;1.25;;;;;10.97;66.20;99661.25;4960189;28;45227;-63
2021/11/01 04:13:16;;;;;;;;;2.25;2.00;;;;;10.97;66.15;99671.78;4959994;28;45249;-63
2021/11/01 04:15:47;;;;;;;;;2.75;2.00;;;;;10.99;66.08;99680.47;4960512;28;45245;-64
2021/11/01 04:18:23;;;;;;;;;2.25;2.00;;;;;10.97;66.20;99677.03;4960103;28;45461;-64
2021/11/01 04:20:55;;;;;;;;;1.25;1.25;;;;;10.98;65.96;99684.91;4960063;28;47234;-64
2021/11/01 04:23:28;;;;;;;;;4.75;3.00;;;;;11.00;66.15;99679.56;4960124;28;45420;-63
2021/11/01 04:25:55;;;;;;;;;2.00;1.75;;;;;10.99;66.08;99676.09;5011076;28;45330;-64
2021/11/01 04:28:20;;;;;;;;;5.00;2.00;;;;;11.00;66.10;99682.22;4958553;28;45440;-64
2021/11/01 04:30:51;;;;;;;;;2.25;1.25;;;;;11.03;65.91;99688.22;4959728;28;45386;-63
2021/11/01 04:33:20;;;;;;;;;2.25;1.25;;;;;11.04;66.06;99683.81;4959596;28;45356;-63
2021/11/01 04:35:45;;;;;;;;;2.00;1.25;;;;;11.06;65.88;99701.25;4959915;28;45420;-63
2021/11/01 04:54:06;;;;;;;;;3.25;2.00;;;;;11.12;65.81;99686.19;4968082;28;45237;-63
2021/11/01 04:56:32;;;;;;;;;1.50;1.50;;;;;11.14;65.88;99687.84;4977870;28;45452;-64
2021/11/01 04:58:58;;;;;;;;;4.00;1.75;;;;;11.10;65.87;99685.41;4978850;28;45419;-64
2021/11/01 05:01:41;;;;;;;;;0.75;0.75;;;;;11.12;65.90;99687.06;4964851;28;48031;-63
2021/11/01 05:04:08;;;;;;;;;0.75;0.50;;;;;11.14;65.90;99685.22;4979133;27;45229;-63
2021/11/01 05:06:38;;;;;;;;;1.00;1.00;;;;;11.16;65.79;99679.94;4960050;28;45611;-63
2021/11/01 05:09:09;;;;;;;;;0.50;0.50;;;;;11.10;65.73;99669.63;4959640;28;45290;-63
2021/11/01 05:12:20;;;;;;;;;1.75;1.25;;;;;11.13;65.84;99686.16;4959411;28;46133;-63
2021/11/01 05:14:36;;;;;;;;;1.00;1.00;;;;;11.14;65.91;99684.38;4961144;28;45423;-64
2021/11/01 05:19:31;;;;;;;;;3.00;2.00;;;;;11.13;65.86;99673.00;4959291;28;45666;-63
2021/11/01 05:22:08;;;;;;;;;2.50;1.25;;;;;11.12;65.74;99670.41;4959419;28;47147;-64
2021/11/01 05:24:38;;;;;;;;;5.00;1.00;;;;;11.13;65.94;99667.75;4962263;28;45451;-63
2021/11/01 05:29:47;;;;;;;;;3.00;2.00;;;;;11.19;65.73;99674.56;4959060;28;45464;-63
2021/11/01 05:32:14;;;;;;;;;2.00;1.00;;;;;11.19;65.81;99679.81;4973618;28;46453;-64
2021/11/01 05:34:40;;;;;;;;;3.75;1.75;;;;;11.19;65.91;99685.06;4947764;28;46210;-64
2021/11/01 05:37:07;;;;;;;;;2.75;1.50;;;;;11.21;65.75;99683.28;4959231;28;45344;-64
2021/11/01 05:39:32;;;;;;;;;3.25;1.25;;;;;11.22;65.80;99690.25;4959264;28;45474;-64
2021/11/01 05:41:58;;;;;;;;;3.50;2.25;;;;;11.24;65.80;99683.16;4958761;28;45362;-64
2021/11/01 05:44:23;;;;;;;;;2.50;1.25;;;;;11.24;65.84;99693.66;4958044;28;45224;-63
2021/11/01 05:46:50;;;;;;;;;2.50;2.00;;;;;11.25;65.75;99690.13;4959087;28;45630;-64
2021/11/01 05:49:17;;;;;;;;;1.25;0.25;;;;;11.27;65.87;99690.06;4963484;28;45197;-64
2021/11/01 05:51:43;;;;;;;;;1.00;1.00;;;;;11.27;65.87;99690.06;4961062;28;46387;-64
2021/11/01 05:54:18;;;;;;;;;3.25;2.50;;;;;11.29;65.77;99702.25;4961095;28;46254;-64
2021/11/01 06:02:15;;;;;;;;;2.50;2.00;;;;;11.32;65.85;99701.28;4978194;28;45326;-64
2021/11/01 06:05:10;;;;;;;;;0.00;0.00;;;;;11.31;65.67;99705.72;4978149;28;45363;-63
2021/11/01 06:15:04;;;;;;;;;4.75;2.00;;;;;11.29;65.80;99704.03;4978369;28;45371;-64
2021/11/01 06:17:31;;;;;;;;;2.25;1.50;;;;;11.29;65.78;99704.91;4978210;28;45185;-64
2021/11/01 06:19:57;;;;;;;;;3.50;1.25;;;;;11.29;65.83;99701.41;4978166;28;45395;-63
2021/11/01 06:22:22;;;;;;;;;2.00;1.00;;;;;11.28;65.71;99704.94;4977979;28;46301;-64
2021/11/01 06:24:51;;;;;;;;;3.00;2.00;;;;;11.29;65.67;99714.56;4990722;28;45246;-64
2021/11/01 06:27:17;;;;;;;;;2.00;1.00;;;;;11.27;65.58;99719.00;5005440;28;45292;-64
2021/11/01 06:30:11;;;;;;;;;5.00;1.50;;;;;11.26;65.70;99725.16;4968744;28;45252;-65
2021/11/01 07:14:55;;;;;;;;;3.50;1.75;;;;;10.94;65.89;99733.19;4957524;28;45807;-63
2021/11/01 08:20:31;;;;;;;;;2.75;1.25;;;;;11.21;66.59;99770.91;4979598;28;45472;-64
2021/11/01 08:28:17;;;;;;;;;0.00;0.00;;;;;11.43;66.54;99764.94;4959713;28;45422;-64
2021/11/01 08:47:15;;;;;;;;;1.00;1.00;;;;;11.85;66.14;99771.44;4977742;28;45397;-64
2021/11/01 08:50:11;;;;;;;;;1.00;0.75;;;;;11.90;66.32;99780.03;4959490;28;45349;-64
2021/11/01 09:03:53;;;;;;;;;0.25;0.25;;;;;12.15;66.12;99766.00;4978854;28;45352;-64
2021/11/01 09:26:54;;;;;;;;;1.00;1.00;;;;;12.70;65.76;99770.16;5008334;28;45413;-66
2021/11/01 09:42:34;;;;;;;;;0.50;0.50;;;;;13.40;65.50;99755.09;4978267;28;45227;-65
2021/11/01 09:45:01;;;;;;;;;2.00;0.50;;;;;13.53;65.12;99751.00;4978299;28;45177;-65
2021/11/01 09:47:27;;;;;;;;;3.00;1.25;;;;;13.64;65.48;99761.97;4971726;28;45263;-63
2021/11/01 09:49:53;;;;;;;;;1.00;1.00;;;;;13.77;64.96;99762.31;4958998;28;45312;-64
2021/11/01 09:52:19;;;;;;;;;2.75;0.25;;;;;13.91;64.66;99766.13;4959260;28;45359;-64
2021/11/01 09:54:45;;;;;;;;;2.25;1.00;;;;;14.03;65.20;99789.38;4958803;28;45293;-64
2021/11/01 09:59:46;;;;;;;;;2.00;1.00;;;;;14.20;64.49;99761.34;4967297;28;45572;-64
2021/11/01 10:02:13;;;;;;;;;3.50;3.00;;;;;14.35;64.65;99770.38;4958899;28;45436;-64
2021/11/01 10:04:45;;;;;;;;;0.50;0.25;;;;;14.44;64.13;99768.16;4958928;28;45542;-64
2021/11/01 10:07:22;;;;;;;;;1.00;1.00;;;;;14.48;64.27;99755.69;4958811;28;45388;-65
2021/11/01 10:09:57;;;;;;;;;3.75;1.25;;;;;14.58;64.22;99766.69;4958610;28;45296;-65
2021/11/01 10:12:32;;;;;;;;;1.00;1.00;;;;;14.73;63.79;99759.84;4958720;28;45450;-64
2021/11/01 10:17:34;;;;;;;;;10.00;7.75;;;;;14.86;63.56;99755.69;4958193;28;45392;-64
2021/11/01 10:18:02;;;;;;;;;70.75;61.50;;;;;14.95;63.52;99754.38;4958424;28;45418;-64
2021/11/01 10:20:30;;;;;;;;;53.25;43.75;;;;;15.07;63.19;99752.97;4958900;28;45307;-64
2021/11/01 10:22:56;;;;;;;;;46.50;39.00;;;;;15.13;63.42;99755.28;4958453;28;45174;-63
2021/11/01 10:25:23;;;;;;;;;25.75;24.50;;;;;15.23;62.88;99753.03;5001781;28;46097;-64
2021/11/01 10:27:57;;;;;;;;;0.50;0.50;;;;;15.28;62.73;99757.19;4969515;27;45368;-64
2021/11/01 10:30:33;;;;;;;;;1.00;1.00;;;;;15.32;62.28;99760.56;4972125;28;45367;-63
2021/11/01 10:33:03;;;;;;;;;2.00;2.00;;;;;15.33;62.26;99766.69;4958623;28;45393;-64
2021/11/01 10:35:31;;;;;;;;;17.25;13.50;;;;;15.40;62.21;99746.94;4958196;28;46314;-64
2021/11/01 10:38:26;;;;;;;;;7.75;6.50;;;;;15.41;62.07;99754.78;4957207;28;45299;-64
2021/11/01 10:57:32;;;;;;;;;0.67;0.33;;;;;15.95;60.71;99732.69;4957931;28;45909;-65
2021/11/01 11:13:25;;;;;;;;;4.00;0.00;;;;;16.32;59.81;99716.59;4957766;28;45424;-66
2021/11/01 11:15:56;;;;;;;;;0.00;0.00;;;;;16.40;59.64;99727.63;4958080;28;45355;-66
2021/11/01 11:49:28;;;;;;;;;17.00;15.50;;;;;16.73;58.00;99716.97;4960506;28;45281;-66
2021/11/01 11:52:05;;;;;;;;;42.25;36.25;;;;;16.72;58.42;99731.16;4960104;28;46923;-66
2021/11/01 11:54:35;;;;;;;;;85.25;74.75;;;;;16.72;58.05;99709.94;4960465;28;45336;-66
2021/11/01 11:57:04;;;;;;;;;0.50;0.25;;;;;16.78;57.20;99703.44;4960446;28;45253;-67
2021/11/01 11:59:37;;;;;;;;;2.00;1.00;;;;;16.81;57.21;99729.78;4967977;28;45347;-66
2021/11/01 12:02:10;;;;;;;;;210.00;194.75;;;;;16.79;57.23;99705.16;4966680;28;45347;-67
2021/11/01 12:04:42;;;;;;;;;2.75;1.50;;;;;16.77;57.05;99700.88;4978706;28;45207;-67
2021/11/01 12:07:12;;;;;;;;;2.00;0.00;;;;;16.85;57.11;99704.78;4963217;28;45350;-67
2021/11/01 12:09:51;;;;;;;;;0.50;0.00;;;;;16.77;56.97;99712.34;4979701;28;45394;-67
2021/11/01 12:17:48;;;;;;;;;1.00;0.25;;;;;16.61;56.87;99684.97;4979673;28;45352;-66
2021/11/01 12:20:14;;;;;;;;;4.25;1.25;;;;;16.60;56.67;99684.09;4979594;28;45359;-66
2021/11/01 12:22:44;;;;;;;;;1.00;1.00;;;;;16.61;56.79;99691.13;4977975;28;46201;-66
2021/11/01 12:25:16;;;;;;;;;0.75;0.50;;;;;16.61;57.40;99682.31;5007597;28;45375;-66
2021/11/01 12:27:45;;;;;;;;;1.00;0.25;;;;;16.57;56.63;99678.97;4970658;28;45471;-66
2021/11/01 12:30:16;;;;;;;;;2.50;0.75;;;;;16.54;56.52;99680.00;4959931;28;45484;-66
2021/11/01 12:32:42;;;;;;;;;0.00;0.00;;;;;16.42;56.61;99670.09;4973658;28;48123;-67
2021/11/01 12:38:14;;;;;;;;;0.75;0.00;;;;;16.29;56.20;99675.22;4960255;28;45404;-66
2021/11/01 12:41:09;;;;;;;;;0.75;0.75;;;;;16.17;55.93;99682.03;4976122;28;45433;-66
2021/11/01 12:57:24;;;;;;;;;0.00;0.00;;;;;15.67;57.09;99657.28;4966489;28;45449;-68
2021/11/01 12:59:49;;;;;;;;;0.75;0.75;;;;;15.65;57.14;99643.25;4978925;28;45236;-66
2021/11/01 13:02:26;;;;;;;;;2.50;1.25;;;;;15.63;56.89;99638.97;4979064;28;45364;-66
2021/11/01 13:04:52;;;;;;;;;2.75;0.75;;;;;15.56;57.36;99635.81;4978778;28;45437;-67
2021/11/01 13:08:03;;;;;;;;;0.00;0.00;;;;;15.60;56.88;99638.19;4979132;28;45254;-66
2021/11/01 13:10:27;;;;;;;;;0.50;0.50;;;;;15.62;57.35;99626.69;4983477;28;45228;-66
2021/11/01 13:18:48;;;;;;;;;1.50;1.00;;;;;15.74;57.09;99624.22;4978913;28;45232;-67
2021/11/01 13:21:20;;;;;;;;;1.00;1.00;;;;;15.83;56.90;99614.97;4978798;28;45409;-67
2021/11/01 13:23:54;;;;;;;;;2.50;1.50;;;;;15.82;57.06;99601.81;4978873;28;45493;-66
2021/11/01 13:37:36;;;;;;;;;0.25;0.00;;;;;16.47;57.15;99587.63;4978494;28;45727;-66
2021/11/01 13:40:09;;;;;;;;;0.50;0.50;;;;;16.62;57.18;99607.13;4977421;28;45387;-66
2021/11/01 13:42:36;;;;;;;;;4.00;2.50;;;;;16.72;57.17;99618.91;4970287;28;45328;-66
2021/11/01 13:45:16;;;;;;;;;1.00;0.00;;;;;16.77;56.88;99616.00;4959077;28;45399;-66
2021/11/01 13:47:49;;;;;;;;;2.00;1.25;;;;;16.86;56.90;99626.91;4958979;28;47335;-66
2021/11/01 13:50:18;;;;;;;;;1.75;1.00;;;;;16.90;56.83;99617.84;4958834;28;45447;-66
2021/11/01 13:52:55;;;;;;;;;2.50;1.00;;;;;16.92;57.04;99608.94;4964789;28;45360;-66
2021/11/01 13:55:34;;;;;;;;;4.25;1.25;;;;;16.96;57.13;99610.50;4957602;28;45339;-66
2021/11/01 13:58:18;;;;;;;;;1.50;1.50;;;;;16.90;57.15;99604.59;4971524;28;46482;-66
2021/11/01 14:03:33;;;;;;;;;0.00;0.00;;;;;16.73;56.94;99594.94;4978641;28;45339;-67
2021/11/01 14:16:32;;;;;;;;;2.75;1.00;;;;;16.23;57.30;99601.34;4978344;28;45176;-65
2021/11/01 15:17:54;;;;;;;;;2.00;0.00;;;;;11.89;63.28;99645.84;4960139;28;45372;-61
2021/11/01 15:20:38;;;;;;;;;2.00;1.75;;;;;11.85;63.16;99650.34;4960895;28;45369;-61
2021/11/01 15:23:27;;;;;;;;;4.50;3.00;;;;;11.81;63.29;99646.97;4960534;28;46077;-62
2021/11/01 16:19:54;;;;;;;;;2.75;2.00;;;;;11.26;65.23;99634.00;4978365;28;45359;-62
2021/11/01 16:22:20;;;;;;;;;2.50;2.25;;;;;11.26;64.99;99639.25;4979622;28;45162;-63
2021/11/01 16:24:48;;;;;;;;;2.00;2.00;;;;;11.25;65.17;99637.53;4990870;28;45474;-63
2021/11/01 16:27:16;;;;;;;;;3.00;1.50;;;;;11.24;65.20;99635.81;4991188;27;45935;-63
2021/11/01 16:30:00;;;;;;;;;4.00;2.75;;;;;11.20;65.14;99627.16;4959358;28;45387;-63
2021/11/01 16:32:36;;;;;;;;;1.50;1.00;;;;;11.18;65.21;99631.63;4960023;28;45441;-63
2021/11/01 16:35:06;;;;;;;;;6.50;4.00;;;;;11.14;65.15;99635.25;4959846;28;45398;-63
2021/11/01 16:40:03;;;;;;;;;6.75;6.75;;;;;11.05;65.23;99633.81;4959767;28;45331;-63
2021/11/01 16:42:37;;;;;;;;;6.75;4.75;;;;;11.03;65.29;99637.41;4959617;28;45243;-63
2021/11/01 16:45:33;;;;;;;;;4.00;4.00;;;;;10.98;65.27;99637.56;4959388;28;45359;-63
2021/11/01 16:47:56;;;;;;;;;5.25;4.00;;;;;10.97;65.36;99641.09;4959075;28;46549;-62
2021/11/01 16:50:22;;;;;;;;;4.00;2.75;;;;;10.93;65.24;99644.75;4975530;28;45347;-63
2021/11/01 16:52:49;;;;;;;;;3.50;3.50;;;;;10.92;65.30;99650.91;4979376;28;45276;-62
2021/11/01 16:55:21;;;;;;;;;6.75;6.75;;;;;10.88;65.60;99660.66;4978964;28;45223;-63
2021/11/01 16:58:03;;;;;;;;;5.75;5.75;;;;;10.84;65.49;99656.44;4978692;28;46951;-63
2021/11/01 17:00:33;;;;;;;;;4.50;4.50;;;;;10.78;65.61;99655.75;4979020;28;45329;-63
2021/11/01 17:03:09;;;;;;;;;8.75;5.75;;;;;10.78;65.59;99661.88;4979176;28;45264;-63
2021/11/01 17:26:24;;;;;;;;;13.25;12.00;;;;;10.59;65.95;99659.00;5017910;28;45453;-63
2021/11/01 17:34:49;;;;;;;;;13.75;12.75;;;;;10.54;66.27;99674.88;4959208;28;45405;-62
2021/11/01 17:37:45;;;;;;;;;8.00;7.50;;;;;10.50;66.13;99678.53;4959098;28;45174;-63
2021/11/01 18:36:38;;;;;;;;;23.75;23.75;;;;;10.50;66.79;99720.56;4958448;28;45308;-63
2021/11/01 18:41:05;;;;;;;;;31.50;29.50;;;;;10.49;66.94;99728.44;4966061;28;45254;-63
2021/11/01 18:51:32;;;;;;;;;36.00;30.00;;;;;10.51;66.82;99711.75;4957886;28;45364;-63
2021/11/01 18:54:16;;;;;;;;;31.00;26.00;;;;;10.54;66.66;99726.53;4958355;28;45620;-64
2021/11/01 18:56:43;;;;;;;;;36.50;33.50;;;;;10.56;66.71;99719.50;4956766;28;46198;-64
2021/11/01 18:59:10;;;;;;;;;35.25;33.50;;;;;10.56;66.66;99711.59;4957709;28;45507;-63
2021/11/01 19:01:41;;;;;;;;;36.50;33.00;;;;;10.55;66.80;99715.13;4969797;28;45274;-63
2021/11/01 19:04:15;;;;;;;;;28.75;26.00;;;;;10.56;66.71;99709.84;4958277;28;45412;-63
2021/11/01 20:05:04;;;;;;;;;18.00;16.75;;;;;10.71;66.72;99713.75;4964326;28;45363;-64
2021/11/01 20:13:09;;;;;;;;;18.50;17.75;;;;;10.69;66.65;99698.94;4959835;28;45863;-64
2021/11/01 21:25:15;;;;;;;;;15.00;14.00;;;;;10.42;66.36;99684.91;4995418;28;45415;-64
2021/11/01 21:27:42;;;;;;;;;22.00;20.00;;;;;10.40;66.23;99688.44;4971211;27;45392;-64
2021/11/01 21:30:10;;;;;;;;;20.75;19.00;;;;;10.37;66.60;99682.41;4959163;28;45361;-64
2021/11/01 21:32:36;;;;;;;;;19.25;18.75;;;;;10.36;66.46;99689.44;4957766;28;45424;-64
2021/11/01 21:35:04;;;;;;;;;20.00;19.50;;;;;10.37;66.41;99687.66;4959344;28;45290;-63
2021/11/01 21:37:30;;;;;;;;;24.75;21.25;;;;;10.32;66.39;99682.50;4959081;28;45323;-64
2021/11/01 21:39:58;;;;;;;;;18.50;16.00;;;;;10.35;66.36;99687.69;4959074;28;47007;-64
2021/11/01 21:42:24;;;;;;;;;23.75;21.50;;;;;10.34;66.52;99687.72;4958644;28;45342;-64
2021/11/01 21:44:50;;;;;;;;;19.25;16.75;;;;;10.29;66.36;99671.25;4959120;28;45216;-64
2021/11/01 21:47:15;;;;;;;;;18.00;18.00;;;;;10.30;66.70;99665.97;4959055;28;45610;-64
2021/11/01 21:49:41;;;;;;;;;17.00;15.75;;;;;10.30;66.59;99668.59;4959235;28;46872;-64
2021/11/01 21:52:07;;;;;;;;;18.50;17.00;;;;;10.34;66.80;99671.97;4957629;28;45276;-64
2021/11/01 21:54:41;;;;;;;;;17.00;16.00;;;;;10.32;66.76;99668.53;4959219;28;45296;-64
2021/11/01 21:57:31;;;;;;;;;17.00;14.25;;;;;10.31;66.52;99658.94;4973611;28;45442;-64
2021/11/01 22:16:43;;;;;;;;;14.75;12.00;;;;;10.28;66.61;99652.00;4958883;28;45320;-64
2021/11/01 22:21:52;;;;;;;;;17.50;15.25;;;;;10.29;66.97;99640.59;4958619;28;45262;-65
2021/11/01 22:24:25;;;;;;;;;14.75;13.25;;;;;10.29;66.72;99640.59;4957241;28;45889;-63
2021/11/01 22:32:43;;;;;;;;;12.75;12.00;;;;;10.27;66.49;99638.94;4958278;28;45784;-64
2021/11/01 22:38:19;;;;;;;;;13.25;12.75;;;;;10.23;66.41;99627.66;4966248;28;45254;-64
2021/11/01 22:40:54;;;;;;;;;14.75;12.50;;;;;10.31;66.60;99624.78;4963826;28;45570;-64
2021/11/01 22:48:41;;;;;;;;;14.00;11.25;;;;;10.29;66.50;99619.59;4962715;28;45431;-64
2021/11/01 22:59:12;;;;;;;;;11.00;10.25;;;;;10.27;66.79;99618.78;4962486;28;45346;-64
2021/11/01 23:01:40;;;;;;;;;10.50;7.50;;;;;10.28;66.59;99617.88;4974990;28;45356;-63
2021/11/01 23:33:41;;;;;;;;;8.00;8.00;;;;;10.18;66.81;99604.16;4977148;28;45356;-64
2021/11/01 23:36:08;;;;;;;;;3.00;2.00;;;;;10.19;66.99;99611.13;4975809;28;47150;-64
2021/11/01 23:38:34;;;;;;;;;11.75;9.25;;;;;10.21;66.74;99603.22;4979395;28;45291;-64
2021/11/01 23:40:59;;;;;;;;;8.75;8.50;;;;;10.22;66.50;99603.16;4980276;28;45379;-64
2021/11/01 23:43:25;;;;;;;;;8.00;8.00;;;;;10.22;66.93;99591.81;4979852;28;45504;-64
2021/11/01 23:45:51;;;;;;;;;5.75;5.75;;;;;10.14;66.67;99578.91;4980041;28;46227;-64
2021/11/01 23:48:19;;;;;;;;;7.75;5.75;;;;;10.22;66.76;99594.44;4966450;28;45252;-64
2021/11/01 23:50:48;;;;;;;;;6.25;5.25;;;;;10.22;66.85;99590.03;4960785;28;45330;-64
2021/11/01 23:53:17;;;;;;;;;8.00;6.00;;;;;10.20;66.89;99591.84;4959233;28;45340;-64
2021/11/01 23:55:43;;;;;;;;;10.00;7.50;;;;;10.21;67.20;99592.72;4960333;28;45640;-64
2021/11/01 23:58:09;;;;;;;;;7.50;5.75;;;;;10.23;66.87;99597.00;4958755;28;45272;-64
